Terminal Aerodrome Forecast
Issued by NWS

Home | Current Version | Previous Version | Text Only | Print | Product List | Glossary On
Versions: 1 2 3 4 5 6 7 8 9 10 11 12 13 14
681
FTUS44 KTSA 271511 AAA
TAFXNA
TAF AMD
KXNA 271511Z 2715/2812 15007KT P6SM FEW030 SCT120
     FM271800 17012G18KT P6SM OVC025
     FM280200 17010G17KT P6SM VCSH BKN030 PROB30 2802/2808 -TSRA
      BKN030CB
     FM280800 20012G19KT 4SM BR OVC025=

USA.gov is the U.S. government's official web portal to all federal, state and local government web resources and services.